Time,TemperatureF,DewpointF,PressureIn,WindDirection,WindDirectionDegrees,WindSpeedMPH,WindSpeedGustMPH,Humidity,HourlyPrecipIn,Conditions,Clouds,dailyrainin,SoftwareType,DateUTC
2013-05-28 00:03:00,72.6,66.0,29.83,SW,231,6.0,11.0,79,0.00,,,0.00,weatherlink.com 1.10,2013-05-28 05:03:00,
2013-05-28 00:18:00,71.9,65.0,29.83,SSW,203,6.0,9.0,80,0.00,,,0.00,weatherlink.com 1.10,2013-05-28 05:18:00,
2013-05-28 00:33:00,71.5,65.0,29.83,SE,131,7.0,11.0,81,0.00,,,0.00,weatherlink.com 1.10,2013-05-28 05:33:00,
2013-05-28 00:48:00,71.3,66.0,29.82,SW,218,4.0,12.0,83,0.00,,,0.00,weatherlink.com 1.10,2013-05-28 05:48:00,
2013-05-28 01:03:00,71.0,66.0,29.82,SSW,205,2.0,11.0,85,0.00,,,0.00,weatherlink.com 1.10,2013-05-28 06:03:00,
2013-05-28 01:18:00,70.8,67.0,29.82,South,172,3.0,9.0,86,0.00,,,0.00,weatherlink.com 1.10,2013-05-28 06:18:00,
2013-05-28 01:33:00,70.9,67.0,29.81,SSE,166,2.0,10.0,88,0.00,,,0.00,weatherlink.com 1.10,2013-05-28 06:33:00,
2013-05-28 01:51:00,70.7,67.0,29.80,SW,229,12.0,12.0,89,0.00,,,0.00,weatherlink.com 1.10,2013-05-28 06:51:00,
2013-05-28 02:03:00,70.7,67.0,29.79,SE,141,7.0,17.0,88,0.00,,,0.00,weatherlink.com 1.10,2013-05-28 07:03:00,
2013-05-28 02:18:00,70.4,66.0,29.79,SW,215,7.0,20.0,87,0.00,,,0.00,weatherlink.com 1.10,2013-05-28 07:18:00,
2013-05-28 02:34:00,69.9,66.0,29.78,ESE,107,4.0,14.0,88,0.00,,,0.00,weatherlink.com 1.10,2013-05-28 07:34:00,
2013-05-28 02:49:00,69.8,67.0,29.79,SSW,207,6.0,15.0,89,0.00,,,0.00,weatherlink.com 1.10,2013-05-28 07:49:00,
2013-05-28 03:04:00,69.7,66.0,29.79,SSW,204,4.0,12.0,89,0.00,,,0.00,weatherlink.com 1.10,2013-05-28 08:04:00,
2013-05-28 03:19:00,69.5,66.0,29.78,SW,231,9.0,14.0,89,0.00,,,0.00,weatherlink.com 1.10,2013-05-28 08:19:00,
2013-05-28 03:34:00,69.3,66.0,29.78,South,175,6.0,13.0,89,0.00,,,0.00,weatherlink.com 1.10,2013-05-28 08:34:00,
2013-05-28 03:49:00,69.2,66.0,29.77,East,79,2.0,13.0,89,0.00,,,0.00,weatherlink.com 1.10,2013-05-28 08:49:00,
2013-05-28 04:04:00,69.3,66.0,29.77,SSE,158,7.0,15.0,88,0.00,,,0.00,weatherlink.com 1.10,2013-05-28 09:04:00,
2013-05-28 04:19:00,69.3,66.0,29.77,SE,136,6.0,12.0,89,0.00,,,0.00,weatherlink.com 1.10,2013-05-28 09:19:00,
2013-05-28 04:34:00,69.1,66.0,29.78,West,270,2.0,8.0,89,0.00,,,0.00,weatherlink.com 1.10,2013-05-28 09:34:00,
2013-05-28 04:49:00,69.1,66.0,29.78,SSE,162,4.0,12.0,89,0.00,,,0.00,weatherlink.com 1.10,2013-05-28 09:49:00,
2013-05-28 05:04:00,69.1,66.0,29.78,SSE,154,4.0,12.0,88,0.00,,,0.00,weatherlink.com 1.10,2013-05-28 10:04:00,
2013-05-28 05:19:00,69.0,65.0,29.77,South,169,5.0,11.0,88,0.00,,,0.00,weatherlink.com 1.10,2013-05-28 10:19:00,
2013-05-28 05:34:00,69.0,65.0,29.78,South,170,6.0,14.0,88,0.00,,,0.00,weatherlink.com 1.10,2013-05-28 10:34:00,
2013-05-28 05:49:00,69.0,65.0,29.78,SW,222,5.0,11.0,88,0.00,,,0.00,weatherlink.com 1.10,2013-05-28 10:49:00,
2013-05-28 06:04:00,69.0,65.0,29.78,SSW,195,5.0,12.0,88,0.00,,,0.00,weatherlink.com 1.10,2013-05-28 11:04:00,
2013-05-28 06:19:00,69.2,65.0,29.78,SSW,203,6.0,16.0,87,0.00,,,0.00,weatherlink.com 1.10,2013-05-28 11:19:00,
2013-05-28 06:34:00,69.3,66.0,29.78,SW,214,4.0,11.0,88,0.00,,,0.00,weatherlink.com 1.10,2013-05-28 11:34:00,
2013-05-28 06:49:00,69.2,66.0,29.77,SE,131,3.0,11.0,88,0.00,,,0.00,weatherlink.com 1.10,2013-05-28 11:49:00,
2013-05-28 07:04:00,69.4,66.0,29.77,South,181,8.0,12.0,88,0.00,,,0.00,weatherlink.com 1.10,2013-05-28 12:04:00,
2013-05-28 07:19:00,69.8,66.0,29.77,SW,222,5.0,10.0,88,0.00,,,0.00,weatherlink.com 1.10,2013-05-28 12:19:00,
2013-05-28 07:34:00,70.1,67.0,29.77,SSE,147,7.0,13.0,88,0.00,,,0.00,weatherlink.com 1.10,2013-05-28 12:34:00,
2013-05-28 07:49:00,70.5,67.0,29.78,SSW,195,5.0,16.0,87,0.00,,,0.00,weatherlink.com 1.10,2013-05-28 12:49:00,
2013-05-28 08:04:00,70.9,67.0,29.79,SSE,167,6.0,11.0,86,0.00,,,0.00,weatherlink.com 1.10,2013-05-28 13:04:00,
2013-05-28 08:19:00,71.5,67.0,29.79,SW,225,7.0,16.0,85,0.00,,,0.00,weatherlink.com 1.10,2013-05-28 13:19:00,
2013-05-28 08:34:00,72.3,67.0,29.78,SSW,207,7.0,17.0,84,0.00,,,0.00,weatherlink.com 1.10,2013-05-28 13:34:00,
2013-05-28 08:49:00,72.9,67.0,29.79,SE,143,6.0,18.0,82,0.00,,,0.00,weatherlink.com 1.10,2013-05-28 13:49:00,
2013-05-28 09:04:00,73.3,67.0,29.78,SSE,149,8.0,21.0,80,0.00,,,0.00,weatherlink.com 1.10,2013-05-28 14:04:00,
2013-05-28 09:19:00,74.6,68.0,29.79,SSW,208,4.0,14.0,80,0.00,,,0.00,weatherlink.com 1.10,2013-05-28 14:19:00,
2013-05-28 09:34:00,74.5,68.0,29.79,South,181,5.0,21.0,79,0.00,,,0.00,weatherlink.com 1.10,2013-05-28 14:34:00,
2013-05-28 09:49:00,74.6,68.0,29.79,SSW,203,9.0,12.0,79,0.00,,,0.00,weatherlink.com 1.10,2013-05-28 14:49:00,
2013-05-28 10:04:00,76.1,68.0,29.78,SSE,154,8.0,16.0,77,0.00,,,0.00,weatherlink.com 1.10,2013-05-28 15:04:00,
2013-05-28 10:19:00,76.3,67.0,29.79,SSE,156,11.0,18.0,73,0.00,,,0.00,weatherlink.com 1.10,2013-05-28 15:19:00,
2013-05-28 10:34:00,76.1,67.0,29.80,SE,139,6.0,21.0,73,0.00,,,0.00,weatherlink.com 1.10,2013-05-28 15:34:00,
2013-05-28 10:49:00,75.3,67.0,29.80,South,176,13.0,16.0,76,0.00,,,0.00,weatherlink.com 1.10,2013-05-28 15:49:00,
2013-05-28 11:04:00,76.9,68.0,29.79,South,180,3.0,17.0,74,0.00,,,0.00,weatherlink.com 1.10,2013-05-28 16:04:00,
2013-05-28 11:19:00,76.2,68.0,29.79,SSW,208,4.0,16.0,75,0.00,,,0.00,weatherlink.com 1.10,2013-05-28 16:19:00,
2013-05-28 11:34:00,75.9,68.0,29.79,SW,217,4.0,14.0,76,0.00,,,0.00,weatherlink.com 1.10,2013-05-28 16:34:00,
2013-05-28 11:49:00,76.7,69.0,29.79,SSW,201,6.0,12.0,76,0.00,,,0.00,weatherlink.com 1.10,2013-05-28 16:49:00,
2013-05-28 12:04:00,77.1,69.0,29.79,South,181,6.0,15.0,75,0.00,,,0.00,weatherlink.com 1.10,2013-05-28 17:04:00,
2013-05-28 12:19:00,77.0,69.0,29.79,WSW,240,5.0,13.0,75,0.00,,,0.00,weatherlink.com 1.10,2013-05-28 17:19:00,
2013-05-28 12:34:00,77.8,69.0,29.78,SSW,200,4.0,19.0,74,0.00,,,0.00,weatherlink.com 1.10,2013-05-28 17:34:00,
2013-05-28 12:49:00,77.0,69.0,29.79,SE,145,5.0,18.0,77,0.00,,,0.00,weatherlink.com 1.10,2013-05-28 17:49:00,
2013-05-28 13:04:00,78.5,70.0,29.77,SW,219,11.0,16.0,75,0.00,,,0.00,weatherlink.com 1.10,2013-05-28 18:04:00,
2013-05-28 13:19:00,79.3,70.0,29.77,SSW,205,7.0,13.0,73,0.00,,,0.00,weatherlink.com 1.10,2013-05-28 18:19:00,
2013-05-28 13:34:00,81.4,70.0,29.76,SW,218,8.0,16.0,68,0.00,,,0.00,weatherlink.com 1.10,2013-05-28 18:34:00,
2013-05-28 13:50:00,82.3,70.0,29.75,SW,216,4.0,16.0,67,0.00,,,0.00,weatherlink.com 1.10,2013-05-28 18:50:00,
2013-05-28 14:05:00,82.7,69.0,29.74,SW,224,15.0,16.0,64,0.00,,,0.00,weatherlink.com 1.10,2013-05-28 19:05:00,
2013-05-28 14:20:00,82.8,69.0,29.74,SW,228,6.0,18.0,63,0.00,,,0.00,weatherlink.com 1.10,2013-05-28 19:20:00,
2013-05-28 14:35:00,83.3,70.0,29.73,West,262,7.0,15.0,65,0.00,,,0.00,weatherlink.com 1.10,2013-05-28 19:35:00,
2013-05-28 14:50:00,83.8,70.0,29.73,SE,142,2.0,17.0,64,0.00,,,0.00,weatherlink.com 1.10,2013-05-28 19:50:00,
2013-05-28 15:05:00,84.4,70.0,29.73,SSE,166,6.0,14.0,62,0.00,,,0.00,weatherlink.com 1.10,2013-05-28 20:05:00,
2013-05-28 15:20:00,83.9,69.0,29.72,SSW,200,4.0,18.0,61,0.00,,,0.00,weatherlink.com 1.10,2013-05-28 20:20:00,
2013-05-28 15:35:00,85.1,69.0,29.72,SE,138,4.0,18.0,59,0.00,,,0.00,weatherlink.com 1.10,2013-05-28 20:35:00,
2013-05-28 15:50:00,85.2,70.0,29.72,SE,139,6.0,19.0,61,0.00,,,0.00,weatherlink.com 1.10,2013-05-28 20:50:00,
2013-05-28 16:05:00,84.8,69.0,29.71,SW,229,13.0,18.0,60,0.00,,,0.00,weatherlink.com 1.10,2013-05-28 21:05:00,
2013-05-28 16:20:00,85.2,69.0,29.70,SE,146,12.0,21.0,59,0.00,,,0.00,weatherlink.com 1.10,2013-05-28 21:20:00,
2013-05-28 16:35:00,84.5,69.0,29.70,SSE,155,7.0,14.0,60,0.00,,,0.00,weatherlink.com 1.10,2013-05-28 21:35:00,
2013-05-28 16:50:00,84.5,70.0,29.69,South,170,6.0,21.0,62,0.00,,,0.00,weatherlink.com 1.10,2013-05-28 21:50:00,
2013-05-28 17:05:00,84.5,69.0,29.69,WSW,253,9.0,16.0,60,0.00,,,0.00,weatherlink.com 1.10,2013-05-28 22:05:00,
2013-05-28 17:20:00,85.4,69.0,29.68,South,183,12.0,16.0,59,0.00,,,0.00,weatherlink.com 1.10,2013-05-28 22:20:00,
2013-05-28 17:35:00,85.4,69.0,29.68,SSE,153,4.0,17.0,59,0.00,,,0.00,weatherlink.com 1.10,2013-05-28 22:35:00,
2013-05-28 17:50:00,84.0,69.0,29.68,WSW,248,4.0,16.0,60,0.00,,,0.00,weatherlink.com 1.10,2013-05-28 22:50:00,
2013-05-28 18:05:00,84.2,69.0,29.67,SSW,204,13.0,20.0,61,0.00,,,0.00,weatherlink.com 1.10,2013-05-28 23:05:00,
2013-05-28 18:20:00,82.5,70.0,29.67,SSE,166,12.0,17.0,66,0.00,,,0.00,weatherlink.com 1.10,2013-05-28 23:20:00,
2013-05-28 18:35:00,82.0,70.0,29.67,SE,138,7.0,26.0,66,0.00,,,0.00,weatherlink.com 1.10,2013-05-28 23:35:00,
2013-05-28 18:50:00,81.8,70.0,29.67,SSW,213,13.0,17.0,68,0.00,,,0.00,weatherlink.com 1.10,2013-05-28 23:50:00,
2013-05-28 19:20:00,80.2,70.0,29.68,SSE,163,8.0,21.0,71,0.00,,,0.00,weatherlink.com 1.10,2013-05-29 00:20:00,
2013-05-28 19:35:00,79.6,70.0,29.68,ENE,65,3.0,15.0,72,0.00,,,0.00,weatherlink.com 1.10,2013-05-29 00:35:00,
2013-05-28 19:50:00,79.2,70.0,29.68,SE,139,3.0,15.0,73,0.00,,,0.00,weatherlink.com 1.10,2013-05-29 00:50:00,
2013-05-28 20:05:00,78.7,70.0,29.68,SSW,207,13.0,14.0,75,0.00,,,0.00,weatherlink.com 1.10,2013-05-29 01:05:00,
2013-05-28 20:20:00,78.0,70.0,29.68,SSW,211,3.0,15.0,76,0.00,,,0.00,weatherlink.com 1.10,2013-05-29 01:20:00,
2013-05-28 20:35:00,77.4,70.0,29.69,South,186,10.0,13.0,77,0.00,,,0.00,weatherlink.com 1.10,2013-05-29 01:35:00,
2013-05-28 20:50:00,76.9,70.0,29.70,South,172,8.0,23.0,78,0.00,,,0.00,weatherlink.com 1.10,2013-05-29 01:50:00,
2013-05-28 21:05:00,76.4,69.0,29.70,South,183,2.0,15.0,79,0.00,,,0.00,weatherlink.com 1.10,2013-05-29 02:05:00,
2013-05-28 21:20:00,76.1,70.0,29.70,East,99,4.0,17.0,80,0.00,,,0.00,weatherlink.com 1.10,2013-05-29 02:20:00,
2013-05-28 21:35:00,75.5,69.0,29.71,SW,226,11.0,17.0,81,0.00,,,0.00,weatherlink.com 1.10,2013-05-29 02:35:00,
2013-05-28 21:50:00,75.1,69.0,29.71,SE,143,9.0,14.0,81,0.00,,,0.00,weatherlink.com 1.10,2013-05-29 02:50:00,
2013-05-28 22:05:00,74.9,69.0,29.72,East,101,3.0,16.0,82,0.00,,,0.00,weatherlink.com 1.10,2013-05-29 03:05:00,
2013-05-28 22:20:00,74.7,69.0,29.73,South,191,2.0,17.0,82,0.00,,,0.00,weatherlink.com 1.10,2013-05-29 03:20:00,
2013-05-28 22:35:00,74.5,69.0,29.74,SSE,151,7.0,14.0,82,0.00,,,0.00,weatherlink.com 1.10,2013-05-29 03:35:00,
2013-05-28 22:50:00,74.4,69.0,29.76,NNW,333,2.0,17.0,82,0.00,,,0.00,weatherlink.com 1.10,2013-05-29 03:50:00,
2013-05-28 23:05:00,74.2,69.0,29.78,SE,134,4.0,14.0,83,0.00,,,0.00,weatherlink.com 1.10,2013-05-29 04:05:00,
2013-05-28 23:20:00,74.0,69.0,29.79,South,191,4.0,11.0,83,0.00,,,0.00,weatherlink.com 1.10,2013-05-29 04:20:00,
2013-05-28 23:35:00,73.8,69.0,29.80,SSE,149,3.0,4.0,84,0.00,,,0.00,weatherlink.com 1.10,2013-05-29 04:35:00,
2013-05-28 23:50:00,73.7,69.0,29.81,WSW,249,3.0,7.0,84,0.00,,,0.00,weatherlink.com 1.10,2013-05-29 04:50:00,